Time;durP1;ratioP1;P1;durP2;ratioP2;P2;SDS_P1;SDS_P2;PMS_P1;PMS_P2;Temp;Humidity;BMP_temperature;BMP_pressure;BME280_temperature;BME280_humidity;BME280_pressure;Samples;Min_cycle;Max_cycle;Signal;HPM_P1;HPM_P2
2022/05/23 00:02:06;;;;;;;20.98;14.05;;;;;;;16.76;62.52;100631.53;5071929;28;20021;-58
2022/05/23 00:04:31;;;;;;;22.50;14.65;;;;;;;16.71;62.50;100624.22;5071581;28;20396;-59
2022/05/23 00:06:57;;;;;;;23.27;14.20;;;;;;;16.68;62.60;100613.72;5071442;28;20089;-59
2022/05/23 00:09:22;;;;;;;22.40;14.57;;;;;;;16.69;62.92;100605.03;5071604;28;20032;-59
2022/05/23 00:11:48;;;;;;;24.27;14.73;;;;;;;16.66;62.33;100608.50;5071809;28;20474;-59
2022/05/23 00:14:14;;;;;;;23.27;15.00;;;;;;;16.63;62.78;100614.78;5071446;28;20048;-59
2022/05/23 00:16:42;;;;;;;21.48;14.80;;;;;;;16.52;63.06;100600.53;5071625;28;20071;-59
2022/05/23 00:19:09;;;;;;;22.30;14.95;;;;;;;16.55;62.91;100615.75;5071298;28;20036;-58
2022/05/23 00:21:36;;;;;;;21.50;14.43;;;;;;;16.56;63.16;100624.97;5071577;28;20161;-60
2022/05/23 00:24:01;;;;;;;21.67;14.30;;;;;;;16.59;63.50;100624.22;5071232;28;20041;-60
2022/05/23 00:26:27;;;;;;;19.75;14.55;;;;;;;16.58;62.98;100625.44;5071278;28;20032;-60
2022/05/23 00:28:52;;;;;;;19.85;13.48;;;;;;;16.58;63.57;100620.63;5070984;28;20496;-60
2022/05/23 00:31:18;;;;;;;21.35;14.00;;;;;;;16.57;63.17;100619.00;5071276;28;20040;-60
2022/05/23 00:36:28;;;;;;;21.95;14.00;;;;;;;16.49;63.47;100617.16;5071234;28;20043;-60
2022/05/23 00:38:54;;;;;;;21.60;14.60;;;;;;;16.44;63.13;100615.44;5073331;28;20081;-60
2022/05/23 00:44:26;;;;;;;22.80;14.40;;;;;;;16.31;64.67;100594.28;5074538;28;20397;-60
2022/05/23 00:47:01;;;;;;;21.45;14.55;;;;;;;16.41;63.63;100602.16;5075520;28;20063;-60
2022/05/23 00:49:33;;;;;;;21.83;13.57;;;;;;;16.41;64.36;100601.38;5075063;28;20024;-60
2022/05/23 00:52:03;;;;;;;22.77;14.38;;;;;;;16.34;63.54;100593.59;5074986;28;20064;-60
2022/05/23 00:54:46;;;;;;;22.33;13.65;;;;;;;16.40;63.89;100603.34;5074951;28;20067;-60
2022/05/23 00:57:15;;;;;;;22.65;13.50;;;;;;;16.38;64.50;100598.09;5075302;28;20052;-60
2022/05/23 00:59:41;;;;;;;22.85;14.15;;;;;;;16.34;63.80;100599.16;5074939;28;20106;-60
2022/05/23 01:02:09;;;;;;;20.95;13.32;;;;;;;16.30;64.13;100582.31;5074636;28;20432;-60
2022/05/23 01:04:34;;;;;;;20.35;13.63;;;;;;;16.25;64.70;100565.78;5074872;28;20063;-60
2022/05/23 01:07:00;;;;;;;23.55;14.40;;;;;;;16.25;64.96;100570.56;5074823;28;20020;-60
2022/05/23 01:09:27;;;;;;;21.40;13.45;;;;;;;16.17;64.79;100561.16;5074839;28;20079;-60
2022/05/23 01:11:55;;;;;;;21.70;13.80;;;;;;;16.12;64.83;100561.41;5075114;28;20048;-60
2022/05/23 01:14:21;;;;;;;21.08;13.27;;;;;;;16.08;65.00;100566.88;5074438;28;20051;-60
2022/05/23 01:16:46;;;;;;;21.95;13.82;;;;;;;16.03;65.20;100570.72;5074915;28;20330;-59
2022/05/23 01:19:12;;;;;;;21.77;13.98;;;;;;;16.02;65.83;100576.63;5074399;28;20043;-59
2022/05/23 01:21:55;;;;;;;20.75;13.88;;;;;;;16.04;65.43;100589.09;5074372;28;20074;-59
2022/05/23 01:24:26;;;;;;;23.70;13.90;;;;;;;16.03;65.19;100600.59;5074582;28;20468;-59
2022/05/23 01:26:55;;;;;;;19.95;13.00;;;;;;;16.01;65.51;100591.78;5074502;28;20383;-60
2022/05/23 01:29:20;;;;;;;22.00;13.63;;;;;;;16.02;65.11;100585.84;5074820;28;20057;-59
2022/05/23 01:31:46;;;;;;;20.90;13.73;;;;;;;15.99;65.33;100575.38;5075014;28;20117;-59
2022/05/23 01:34:11;;;;;;;21.45;14.00;;;;;;;15.98;65.19;100584.09;5074731;28;20029;-59
2022/05/23 01:36:36;;;;;;;22.08;14.18;;;;;;;15.97;65.74;100582.47;5074617;28;20032;-59
2022/05/23 01:39:02;;;;;;;21.10;14.27;;;;;;;15.96;65.70;100570.50;5074802;28;20044;-59
2022/05/23 01:41:28;;;;;;;22.08;14.13;;;;;;;15.92;66.08;100561.19;5074571;28;20051;-59
2022/05/23 01:43:53;;;;;;;21.90;14.23;;;;;;;15.85;66.11;100564.56;5074755;28;20032;-59
2022/05/23 01:46:19;;;;;;;20.30;13.88;;;;;;;15.79;66.07;100570.69;5074602;28;20025;-59
2022/05/23 01:48:45;;;;;;;21.63;13.88;;;;;;;15.75;66.90;100571.41;5074443;28;20115;-59
2022/05/23 01:51:10;;;;;;;22.17;14.38;;;;;;;15.70;67.15;100565.25;5074404;28;20056;-59
2022/05/23 01:53:35;;;;;;;22.60;14.95;;;;;;;15.68;67.39;100567.56;5074150;28;20051;-60
2022/05/23 01:56:05;;;;;;;20.45;14.00;;;;;;;15.60;67.15;100564.53;5074128;28;20040;-59
2022/05/23 02:01:15;;;;;;;;;;;;;;;15.68;64.99;100570.34;5074807;28;20435;-59
2022/05/23 02:03:45;;;;;;;21.50;13.60;;;;;;;15.58;67.02;100566.84;5074336;28;19912;-59
2022/05/23 02:06:11;;;;;;;20.88;14.00;;;;;;;15.56;67.63;100557.22;5074047;28;20074;-59
2022/05/23 02:08:36;;;;;;;21.90;14.95;;;;;;;15.50;67.88;100553.00;5074042;28;20032;-59
2022/05/23 02:11:03;;;;;;;22.05;15.30;;;;;;;15.43;68.36;100548.84;5074010;28;20154;-59
2022/05/23 02:13:31;;;;;;;21.80;13.57;;;;;;;15.39;69.04;100550.69;5073641;28;20472;-59
2022/05/23 02:15:56;;;;;;;23.10;15.63;;;;;;;15.30;68.77;100541.63;5073923;28;20025;-59
2022/05/23 02:18:21;;;;;;;23.27;14.77;;;;;;;15.27;69.04;100542.31;5073590;28;20039;-59
2022/05/23 02:20:47;;;;;;;22.15;14.75;;;;;;;15.23;68.87;100544.97;5073635;28;20490;-59
2022/05/23 02:23:12;;;;;;;22.75;14.15;;;;;;;15.21;69.05;100538.13;5074049;28;20443;-59
2022/05/23 02:25:37;;;;;;;21.67;14.15;;;;;;;15.23;69.34;100550.56;5074028;28;20040;-59
2022/05/23 02:28:03;;;;;;;22.13;14.93;;;;;;;15.22;68.91;100540.56;5073397;28;20311;-60
2022/05/23 02:30:28;;;;;;;21.83;14.63;;;;;;;15.22;69.21;100537.78;5073590;28;20107;-60
2022/05/23 02:32:53;;;;;;;22.60;15.43;;;;;;;15.24;69.41;100531.84;5073412;28;20036;-59
2022/05/23 02:35:19;;;;;;;21.10;14.75;;;;;;;15.25;68.97;100530.69;5073215;28;20501;-59
2022/05/23 02:37:45;;;;;;;21.42;14.65;;;;;;;15.26;69.30;100535.09;5073241;28;20037;-60
2022/05/23 02:40:11;;;;;;;21.08;14.00;;;;;;;15.25;69.64;100536.25;5073174;28;20048;-59
2022/05/23 02:42:37;;;;;;;21.92;14.80;;;;;;;15.23;69.96;100527.44;5073200;28;20024;-60
2022/05/23 02:45:06;;;;;;;23.05;14.52;;;;;;;15.15;69.50;100523.59;5073192;28;20497;-60
2022/05/23 02:47:32;;;;;;;21.73;14.73;;;;;;;15.13;69.58;100518.34;5073305;28;20028;-60
2022/05/23 02:49:58;;;;;;;22.63;14.80;;;;;;;15.18;69.97;100516.53;5072985;28;20028;-60
2022/05/23 02:52:23;;;;;;;22.38;15.40;;;;;;;15.15;69.99;100515.25;5072481;28;20028;-60
2022/05/23 02:54:48;;;;;;;22.98;15.00;;;;;;;15.12;70.07;100510.34;5072628;28;20032;-60
2022/05/23 02:57:13;;;;;;;22.67;15.05;;;;;;;15.13;70.10;100501.66;5072771;28;20021;-59
2022/05/23 02:59:39;;;;;;;21.98;15.27;;;;;;;15.16;70.09;100490.97;5072453;28;20111;-59
2022/05/23 03:04:48;;;;;;;22.35;14.48;;;;;;;15.13;70.48;100479.34;5073027;28;20059;-60
2022/05/23 03:07:14;;;;;;;23.25;14.98;;;;;;;15.08;70.41;100474.03;5072274;28;20036;-60
2022/05/23 03:09:39;;;;;;;23.25;15.18;;;;;;;15.01;71.25;100448.72;5072560;28;20503;-59
2022/05/23 03:12:05;;;;;;;22.30;15.65;;;;;;;14.92;71.43;100434.09;5072633;28;20025;-60
2022/05/23 03:14:31;;;;;;;21.25;15.02;;;;;;;14.87;71.40;100423.16;5072376;28;20065;-60
2022/05/23 03:17:01;;;;;;;21.25;15.40;;;;;;;14.87;72.08;100429.53;5072069;28;20051;-59
2022/05/23 03:19:26;;;;;;;21.48;15.18;;;;;;;14.84;72.18;100421.03;5072149;28;20119;-60
2022/05/23 03:27:19;;;;;;;23.50;15.32;;;;;;;14.80;72.11;100415.34;5072334;28;20052;-59
2022/05/23 03:29:44;;;;;;;23.23;15.38;;;;;;;14.80;72.72;100416.19;5070443;28;20049;-59
2022/05/23 03:32:09;;;;;;;23.52;15.68;;;;;;;14.80;72.33;100410.63;5072380;28;20415;-60
2022/05/23 03:34:35;;;;;;;23.50;16.85;;;;;;;14.80;72.77;100409.78;5072745;28;20020;-60
2022/05/23 03:37:00;;;;;;;22.88;15.93;;;;;;;14.80;72.30;100407.00;5073127;28;20025;-59
2022/05/23 03:39:25;;;;;;;22.50;17.23;;;;;;;14.82;72.75;100401.91;5072888;28;20102;-60
2022/05/23 03:41:52;;;;;;;22.20;16.83;;;;;;;14.78;73.49;100399.00;5071672;28;20025;-59
2022/05/23 03:44:18;;;;;;;22.40;17.08;;;;;;;14.79;73.56;100391.44;5071826;28;20044;-59
2022/05/23 03:46:43;;;;;;;23.45;16.88;;;;;;;14.73;73.48;100379.75;5072127;28;20035;-59
2022/05/23 03:49:08;;;;;;;23.35;16.42;;;;;;;14.65;73.88;100367.53;5072042;28;20109;-59
2022/05/23 03:51:34;;;;;;;24.05;17.88;;;;;;;14.64;73.88;100379.81;5071958;28;20059;-59
2022/05/23 03:54:00;;;;;;;21.30;16.23;;;;;;;14.64;74.40;100379.81;5071794;28;20032;-59
2022/05/23 03:56:25;;;;;;;22.38;16.95;;;;;;;14.66;74.10;100376.69;5071813;28;20097;-59
2022/05/23 03:58:50;;;;;;;23.80;17.35;;;;;;;14.65;74.87;100375.88;5071502;28;20463;-58
2022/05/23 04:01:19;;;;;;;22.50;16.20;;;;;;;14.69;74.27;100373.25;5071494;28;20111;-59
2022/05/23 04:03:44;;;;;;;22.77;16.35;;;;;;;14.72;74.16;100375.34;5071790;28;20028;-59
2022/05/23 04:06:10;;;;;;;22.70;16.17;;;;;;;14.73;74.16;100368.63;5071721;28;20118;-58
2022/05/23 04:08:36;;;;;;;24.52;16.85;;;;;;;14.75;74.55;100366.28;5071679;28;20031;-59
2022/05/23 04:11:02;;;;;;;23.38;16.50;;;;;;;14.79;75.03;100367.22;5071753;28;20024;-58
2022/05/23 04:13:28;;;;;;;31.05;16.92;;;;;;;14.87;74.62;100364.66;5074522;28;20043;-59
2022/05/23 04:15:54;;;;;;;22.63;16.08;;;;;;;14.91;74.23;100365.63;5076126;28;20016;-58
2022/05/23 04:18:20;;;;;;;22.48;16.27;;;;;;;14.94;74.28;100360.16;5075990;28;20089;-59
2022/05/23 04:20:45;;;;;;;23.02;16.60;;;;;;;14.98;74.72;100361.06;5075780;28;20174;-59
2022/05/23 04:23:11;;;;;;;25.02;16.60;;;;;;;15.00;74.65;100355.16;5075823;28;20027;-59
2022/05/23 04:25:47;;;;;;;23.45;16.95;;;;;;;14.96;74.24;100340.31;5075245;28;20142;-59
2022/05/23 04:28:13;;;;;;;24.90;16.15;;;;;;;15.02;74.46;100344.47;5074978;28;20104;-60
2022/05/23 04:30:39;;;;;;;24.85;16.88;;;;;;;15.03;75.07;100332.16;5075661;28;20440;-59
2022/05/23 04:35:50;;;;;;;24.40;17.73;;;;;;;15.02;74.43;100330.53;5075915;28;20056;-59
2022/05/23 04:38:17;;;;;;;23.05;16.92;;;;;;;15.11;74.58;100339.59;5075248;28;20585;-59
2022/05/23 04:40:43;;;;;;;23.20;16.52;;;;;;;15.15;74.33;100342.50;5075632;28;20029;-58
2022/05/23 04:43:08;;;;;;;24.27;16.63;;;;;;;15.19;74.66;100332.28;5075523;28;20372;-59
2022/05/23 04:45:34;;;;;;;23.27;16.88;;;;;;;15.19;74.48;100335.06;5074193;28;20029;-59
2022/05/23 04:50:43;;;;;;;23.45;16.65;;;;;;;15.16;74.89;100315.44;5075861;28;20075;-59
2022/05/23 04:53:09;;;;;;;24.23;17.50;;;;;;;15.31;74.78;100333.44;5074130;28;20040;-59
2022/05/23 04:55:36;;;;;;;23.20;17.58;;;;;;;15.33;74.96;100328.31;5075316;28;20024;-59
2022/05/23 04:58:02;;;;;;;26.40;17.70;;;;;;;15.27;75.13;100311.81;5075089;28;20059;-59
2022/05/23 05:00:29;;;;;;;23.05;16.45;;;;;;;15.29;75.37;100306.72;5074867;28;20056;-59
2022/05/23 05:02:59;;;;;;;24.10;16.85;;;;;;;15.33;75.37;100304.03;5075044;28;20030;-59
2022/05/23 05:05:25;;;;;;;23.70;16.63;;;;;;;15.39;75.53;100311.00;5075185;28;20061;-59
2022/05/23 05:07:50;;;;;;;25.05;16.42;;;;;;;15.56;75.28;100311.88;5075373;28;20077;-59
2022/05/23 05:10:15;;;;;;;22.02;16.08;;;;;;;15.57;74.91;100303.16;5075047;28;20105;-59
2022/05/23 05:12:40;;;;;;;22.95;16.30;;;;;;;15.71;74.49;100301.97;5075366;28;20158;-58
2022/05/23 05:15:07;;;;;;;23.95;15.98;;;;;;;15.81;74.19;100303.41;5075155;28;20471;-60
2022/05/23 05:17:32;;;;;;;21.80;15.95;;;;;;;15.90;73.67;100301.31;5075457;28;20081;-58
2022/05/23 05:19:57;;;;;;;23.65;15.73;;;;;;;15.98;73.49;100303.13;5075354;28;20031;-60
2022/05/23 05:22:22;;;;;;;23.30;15.90;;;;;;;15.98;73.01;100291.97;5073733;28;20021;-58
2022/05/23 05:24:48;;;;;;;23.42;16.90;;;;;;;16.00;73.26;100278.47;5074631;28;20032;-58
2022/05/23 05:27:14;;;;;;;22.67;16.23;;;;;;;16.04;73.90;100271.03;5075301;28;20395;-58
2022/05/23 05:29:40;;;;;;;21.63;15.68;;;;;;;16.08;73.39;100262.75;5075685;28;20089;-58
2022/05/23 05:32:14;;;;;;;24.58;16.13;;;;;;;16.25;73.04;100263.56;5075170;28;20350;-59
2022/05/23 05:35:02;;;;;;;23.27;16.13;;;;;;;16.36;72.53;100261.88;5074434;28;20039;-58
2022/05/23 05:37:33;;;;;;;22.17;15.75;;;;;;;16.52;72.21;100251.50;5073658;28;20032;-58
2022/05/23 05:40:03;;;;;;;23.67;16.55;;;;;;;16.51;71.91;100237.91;5073791;28;20091;-58
2022/05/23 05:42:44;;;;;;;23.08;16.50;;;;;;;16.68;71.69;100234.75;5074721;28;20017;-58
2022/05/23 05:45:23;;;;;;;23.40;16.80;;;;;;;16.76;71.27;100246.06;5075057;28;20107;-58
2022/05/23 05:47:51;;;;;;;22.55;17.17;;;;;;;16.84;71.46;100245.06;5074749;28;20024;-58
2022/05/23 05:50:27;;;;;;;24.40;16.67;;;;;;;16.88;70.90;100245.97;5074822;28;20056;-58
2022/05/23 05:52:57;;;;;;;23.98;16.83;;;;;;;17.00;70.59;100237.47;5074574;28;20086;-59
2022/05/23 05:55:22;;;;;;;22.23;16.30;;;;;;;17.12;70.72;100236.56;5074186;28;20035;-59
2022/05/23 05:57:48;;;;;;;23.60;17.15;;;;;;;17.13;70.67;100228.97;5074212;28;20028;-58
2022/05/23 06:00:14;;;;;;;23.70;17.05;;;;;;;17.12;70.09;100222.59;5073828;28;20104;-59
2022/05/23 06:02:40;;;;;;;23.35;16.80;;;;;;;17.18;70.08;100213.91;5074183;28;20130;-59
2022/05/23 06:05:05;;;;;;;23.55;17.13;;;;;;;17.20;69.94;100219.94;5074156;28;20453;-58
2022/05/23 06:13:00;;;;;;;22.85;17.20;;;;;;;17.43;69.07;100222.81;5074053;28;20521;-58
2022/05/23 06:15:26;;;;;;;23.98;16.60;;;;;;;17.55;68.60;100221.84;5072678;28;20029;-58
2022/05/23 06:17:52;;;;;;;23.83;17.13;;;;;;;17.63;68.22;100220.78;5073162;28;20021;-58
2022/05/23 06:20:18;;;;;;;22.42;16.63;;;;;;;17.71;67.79;100216.16;5073347;28;20020;-58
2022/05/23 06:22:43;;;;;;;24.30;15.70;;;;;;;17.80;67.52;100211.13;5073573;28;20024;-58
2022/05/23 06:25:09;;;;;;;21.83;15.43;;;;;;;17.92;67.13;100215.72;5073603;28;20030;-57
2022/05/23 06:27:35;;;;;;;22.88;16.55;;;;;;;18.03;67.31;100205.59;5073510;28;20431;-58
2022/05/23 06:30:00;;;;;;;23.90;16.52;;;;;;;18.12;66.44;100199.75;5073852;28;20341;-58
2022/05/23 06:32:25;;;;;;;22.65;15.38;;;;;;;18.22;65.64;100199.13;5073439;28;20021;-58
2022/05/23 06:34:51;;;;;;;22.50;16.50;;;;;;;18.24;65.66;100198.72;5072899;28;20410;-58
2022/05/23 06:37:16;;;;;;;21.60;15.35;;;;;;;18.31;65.80;100192.44;5070832;28;20032;-58
2022/05/23 06:39:41;;;;;;;22.92;15.82;;;;;;;18.41;64.69;100189.03;5073086;28;20024;-58
2022/05/23 06:42:07;;;;;;;21.52;16.15;;;;;;;18.48;63.98;100179.91;5073039;28;20094;-58
2022/05/23 06:44:33;;;;;;;22.83;15.23;;;;;;;18.53;64.52;100174.00;5072586;28;20032;-57
2022/05/23 06:47:02;;;;;;;23.20;16.38;;;;;;;18.56;64.31;100178.84;5073004;28;20025;-58
2022/05/23 06:49:28;;;;;;;22.38;15.70;;;;;;;18.58;63.77;100178.47;5073027;28;20094;-57
2022/05/23 06:51:53;;;;;;;22.65;15.35;;;;;;;18.67;63.45;100171.38;5072850;28;20437;-58
2022/05/23 06:54:20;;;;;;;22.63;15.45;;;;;;;18.77;63.22;100166.31;5072961;28;20107;-58
2022/05/23 06:56:52;;;;;;;23.17;15.38;;;;;;;18.84;61.78;100172.81;5069038;28;20376;-56
2022/05/23 06:59:18;;;;;;;21.40;15.60;;;;;;;18.85;62.04;100166.03;5068895;28;20048;-57
2022/05/23 07:01:45;;;;;;;21.17;15.23;;;;;;;18.94;63.15;100181.78;5068852;28;20063;-56
2022/05/23 07:04:10;;;;;;;22.35;16.00;;;;;;;19.11;61.79;100183.22;5067674;28;20028;-56
2022/05/23 07:14:49;;;;;;;20.17;14.20;;;;;;;19.52;60.81;100174.09;5067938;28;20514;-57
2022/05/23 07:17:15;;;;;;;21.23;14.55;;;;;;;19.54;60.34;100180.91;5068574;28;20020;-56
2022/05/23 07:19:40;;;;;;;19.98;14.15;;;;;;;19.47;59.69;100187.25;5068755;28;20025;-54
2022/05/23 07:22:06;;;;;;;22.63;14.38;;;;;;;19.48;60.16;100182.47;5068335;28;20029;-57
2022/05/23 07:24:31;;;;;;;20.65;14.38;;;;;;;19.42;59.74;100182.00;5066887;28;20533;-52
2022/05/23 07:27:01;;;;;;;22.05;13.57;;;;;;;19.35;60.34;100176.31;5068308;28;20056;-53
2022/05/23 07:29:27;;;;;;;20.35;14.02;;;;;;;19.40;60.99;100169.56;5068315;28;20029;-53
2022/05/23 07:31:54;;;;;;;21.45;14.00;;;;;;;19.41;60.17;100168.34;5066770;28;20102;-53
2022/05/23 07:34:20;;;;;;;20.95;13.93;;;;;;;19.44;60.35;100164.78;5068132;28;20029;-62
2022/05/23 07:36:47;;;;;;;21.08;14.60;;;;;;;19.53;60.89;100161.66;5066528;28;20390;-53
2022/05/23 07:39:12;;;;;;;21.02;14.30;;;;;;;19.65;60.16;100161.38;5067812;28;20025;-55
2022/05/23 07:41:39;;;;;;;21.80;14.65;;;;;;;19.83;60.24;100169.97;5068126;28;20031;-54
2022/05/23 07:44:07;;;;;;;21.30;14.13;;;;;;;19.98;59.52;100173.75;5068134;28;20040;-52
2022/05/23 07:46:34;;;;;;;21.38;14.23;;;;;;;20.00;58.67;100164.94;5068252;28;20075;-53
2022/05/23 07:49:00;;;;;;;21.52;14.60;;;;;;;20.01;58.73;100161.78;5068090;28;20116;-54
2022/05/23 07:51:29;;;;;;;20.60;13.80;;;;;;;20.09;58.78;100166.25;5066299;28;20028;-53
2022/05/23 08:02:10;;;;;;;21.15;13.95;;;;;;;20.37;58.31;100152.81;5067493;28;20018;-53
2022/05/23 08:04:35;;;;;;;21.55;14.68;;;;;;;20.45;57.25;100156.47;5067272;28;20443;-54
2022/05/23 08:07:00;;;;;;;23.17;14.65;;;;;;;20.46;56.54;100153.25;5060870;28;20029;-53
2022/05/23 08:09:26;;;;;;;19.98;14.43;;;;;;;20.53;56.65;100147.72;5054074;28;20021;-52
2022/05/23 08:11:55;;;;;;;22.00;15.25;;;;;;;20.59;56.10;100145.34;5038641;28;20437;-54
2022/05/23 08:14:21;;;;;;;21.38;14.25;;;;;;;20.67;55.53;100146.16;5034364;28;20036;-53
2022/05/23 08:16:47;;;;;;;21.75;14.68;;;;;;;20.68;55.84;100143.00;5040631;28;20072;-52
2022/05/23 08:19:12;;;;;;;21.25;14.50;;;;;;;20.88;56.03;100128.63;5043590;28;20021;-53
2022/05/23 08:21:44;;;;;;;20.65;13.20;;;;;;;21.12;55.02;100115.09;5044598;28;20055;-52
2022/05/23 08:24:10;;;;;;;19.48;12.80;;;;;;;21.54;54.27;100122.00;5043612;28;20061;-53
2022/05/23 08:26:35;;;;;;;21.63;13.88;;;;;;;21.74;52.90;100121.66;5042991;28;20397;-53
2022/05/23 08:29:00;;;;;;;21.83;14.23;;;;;;;21.72;52.71;100112.84;5043103;28;20437;-54
2022/05/23 08:31:25;;;;;;;20.88;14.05;;;;;;;21.74;53.24;100114.03;5041915;28;20083;-53
2022/05/23 08:33:51;;;;;;;20.08;13.40;;;;;;;21.71;52.34;100111.22;5033115;28;20050;-53
2022/05/23 08:36:16;;;;;;;20.88;13.63;;;;;;;21.71;53.02;100108.41;5046470;28;20121;-53
2022/05/23 08:38:42;;;;;;;19.20;12.90;;;;;;;21.63;53.81;100101.97;5053834;28;20029;-53
2022/05/23 08:41:44;;;;;;;20.30;13.30;;;;;;;21.64;54.22;100112.81;5053595;28;20017;-53
2022/05/23 08:44:12;;;;;;;21.48;13.18;;;;;;;21.64;53.29;100112.03;5053856;28;20074;-54
2022/05/23 08:47:05;;;;;;;21.30;13.77;;;;;;;21.58;53.09;100100.34;5051457;28;20056;-53
2022/05/23 08:49:45;;;;;;;20.38;12.98;;;;;;;21.62;53.16;100101.19;5051441;28;20423;-52
2022/05/23 08:52:45;;;;;;;20.15;13.38;;;;;;;21.66;53.83;100095.53;5051941;28;20044;-53
2022/05/23 08:55:32;;;;;;;22.27;12.77;;;;;;;21.71;54.15;100083.88;5051284;28;20081;-53
2022/05/23 08:58:12;;;;;;;21.98;13.18;;;;;;;21.67;54.17;100077.44;5051425;28;20105;-52
2022/05/23 09:00:41;;;;;;;21.58;13.70;;;;;;;21.57;53.20;100072.59;5051782;28;20029;-53
2022/05/23 09:03:19;;;;;;;20.48;13.63;;;;;;;21.54;54.08;100071.34;5051358;28;20039;-53
2022/05/23 09:05:51;;;;;;;20.60;13.63;;;;;;;21.45;53.15;100077.41;5051056;28;20037;-53
2022/05/23 09:08:22;;;;;;;22.30;13.73;;;;;;;21.29;53.40;100068.53;5051414;28;20061;-53
2022/05/23 09:10:58;;;;;;;20.90;13.35;;;;;;;21.15;54.62;100075.72;5051288;28;20124;-53
2022/05/23 09:13:27;;;;;;;20.80;13.43;;;;;;;21.14;55.23;100062.06;5051226;28;20043;-51
2022/05/23 09:15:54;;;;;;;22.30;13.82;;;;;;;21.07;54.92;100051.59;5051021;28;20029;-53
2022/05/23 09:18:23;;;;;;;19.55;13.23;;;;;;;20.99;56.79;100031.09;5048954;28;20090;-53
2022/05/23 09:20:57;;;;;;;22.10;13.82;;;;;;;21.00;55.84;100035.50;5051370;28;20025;-54
2022/05/23 09:23:28;;;;;;;21.05;13.60;;;;;;;20.98;55.39;100026.66;5051221;28;20033;-53
2022/05/23 09:25:55;;;;;;;20.48;13.63;;;;;;;20.94;56.39;100020.25;5051036;28;20025;-53
2022/05/23 09:28:29;;;;;;;20.95;13.68;;;;;;;21.10;54.96;100025.50;5050914;28;20546;-54
2022/05/23 09:31:26;;;;;;;19.75;13.13;;;;;;;21.18;55.60;100017.88;5051154;28;20028;-51
2022/05/23 09:33:54;;;;;;;22.05;14.07;;;;;;;21.10;55.17;100013.44;5050982;28;20035;-53
2022/05/23 09:36:30;;;;;;;21.60;13.13;;;;;;;21.17;56.35;100007.81;5050621;28;20110;-53
2022/05/23 09:38:59;;;;;;;20.10;13.95;;;;;;;21.37;56.48;100010.25;5050658;28;20387;-53
2022/05/23 09:41:27;;;;;;;21.42;14.40;;;;;;;21.33;55.68;100013.88;5048438;28;20033;-54
2022/05/23 09:49:23;;;;;;;21.70;15.15;;;;;;;21.20;56.32;99981.72;5050744;28;19925;-53
2022/05/23 09:51:51;;;;;;;21.88;14.43;;;;;;;21.26;55.89;99977.28;5050334;28;20025;-53
2022/05/23 09:54:20;;;;;;;21.83;14.52;;;;;;;21.18;55.24;99956.81;5049973;28;20040;-52
2022/05/23 09:56:48;;;;;;;21.92;14.25;;;;;;;21.33;55.01;99962.44;5050467;28;20111;-52
2022/05/23 09:59:28;;;;;;;25.17;15.25;;;;;;;21.49;54.73;99962.03;5050290;28;20387;-53
2022/05/23 10:01:54;;;;;;;22.00;13.75;;;;;;;21.74;54.03;99956.41;5050003;28;20029;-54
2022/05/23 10:04:28;;;;;;;21.63;13.90;;;;;;;21.99;53.87;99958.34;5049820;28;20044;-54
2022/05/23 10:06:54;;;;;;;20.20;13.05;;;;;;;22.25;54.03;99959.06;5049602;28;20171;-52
2022/05/23 10:09:32;;;;;;;20.25;13.20;;;;;;;22.43;53.00;99956.22;5049499;28;20115;-52
2022/05/23 10:12:08;;;;;;;20.08;12.90;;;;;;;22.67;52.22;99948.06;5039627;28;20068;-53
2022/05/23 10:14:43;;;;;;;21.67;13.40;;;;;;;22.86;51.07;99941.88;5029677;28;20030;-49
2022/05/23 10:17:08;;;;;;;20.92;14.15;;;;;;;22.81;51.29;99944.34;5028302;28;20033;-52
2022/05/23 10:19:37;;;;;;;20.63;13.10;;;;;;;22.96;51.04;99942.22;5027623;28;20030;-52
2022/05/23 10:22:16;;;;;;;20.63;13.57;;;;;;;23.12;51.01;99941.69;5028096;28;20417;-51
2022/05/23 10:25:10;;;;;;;21.75;13.52;;;;;;;23.32;51.24;99948.41;5029212;28;20029;-54
2022/05/23 10:27:50;;;;;;;21.35;14.05;;;;;;;23.74;50.27;99934.31;5029222;28;20038;-52
2022/05/23 10:30:19;;;;;;;20.27;13.80;;;;;;;23.84;47.76;99929.78;5029588;28;20077;-52
2022/05/23 10:32:53;;;;;;;20.73;13.18;;;;;;;23.68;47.78;99936.00;5029327;28;20512;-51
2022/05/23 10:35:26;;;;;;;20.50;13.40;;;;;;;23.73;48.46;99935.53;5029353;28;20038;-52
2022/05/23 10:37:51;;;;;;;19.60;12.50;;;;;;;23.74;47.81;99939.19;5029728;28;20036;-52
2022/05/23 10:43:20;;;;;;;20.52;13.32;;;;;;;24.00;48.34;99929.22;5030909;28;20079;-52
2022/05/23 10:45:54;;;;;;;21.23;13.00;;;;;;;24.13;47.93;99927.47;5051117;28;20040;-56
2022/05/23 10:48:38;;;;;;;22.13;13.15;;;;;;;24.16;48.68;99925.81;5050822;28;20129;-55
2022/05/23 10:51:21;;;;;;;21.92;13.30;;;;;;;24.35;48.71;99920.72;5051208;28;20076;-57
2022/05/23 10:54:10;;;;;;;21.25;14.80;;;;;;;24.51;48.29;99917.28;5051087;28;20029;-56
2022/05/23 10:56:49;;;;;;;20.48;13.70;;;;;;;24.66;48.32;99898.88;5050501;28;20135;-54
2022/05/23 11:00:03;;;;;;;20.85;13.60;;;;;;;24.87;48.85;99892.16;5051280;28;20102;-57
2022/05/23 11:02:35;;;;;;;21.98;14.70;;;;;;;24.78;46.55;99866.44;5045618;28;20039;-56
2022/05/23 11:05:21;;;;;;;21.50;14.90;;;;;;;24.73;47.97;99873.38;5050550;28;20025;-57
2022/05/23 11:08:11;;;;;;;22.02;14.10;;;;;;;24.88;47.72;99864.66;5051431;28;20044;-57
2022/05/23 11:10:57;;;;;;;23.67;13.63;;;;;;;25.08;47.16;99867.53;5050588;28;20456;-57
2022/05/23 11:13:45;;;;;;;20.25;13.68;;;;;;;25.08;46.89;99859.88;5048505;28;20029;-57
2022/05/23 11:16:33;;;;;;;21.45;13.48;;;;;;;25.11;45.50;99855.38;5048948;28;20126;-56
2022/05/23 11:19:30;;;;;;;20.80;13.38;;;;;;;25.32;45.55;99844.91;5050490;28;20086;-57
2022/05/23 11:22:05;;;;;;;20.55;13.00;;;;;;;25.49;44.54;99828.84;5051022;28;20021;-56
2022/05/23 11:24:48;;;;;;;21.50;13.45;;;;;;;25.67;44.25;99811.50;5050799;28;20441;-56
2022/05/23 11:35:48;;;;;;;19.25;12.30;;;;;;;26.06;42.37;99777.91;5051095;28;20098;-57
2022/05/23 11:38:15;;;;;;;19.65;12.32;;;;;;;25.87;41.58;99763.34;5050752;28;20116;-56
2022/05/23 11:41:08;;;;;;;22.13;12.68;;;;;;;26.01;43.27;99765.06;5050758;28;20025;-57
2022/05/23 11:43:33;;;;;;;20.48;12.25;;;;;;;26.11;41.60;99766.88;5054629;28;20040;-57
2022/05/23 11:46:04;;;;;;;19.02;11.68;;;;;;;26.36;41.24;99764.66;5055147;28;20024;-56
2022/05/23 11:48:43;;;;;;;19.17;12.13;;;;;;;26.70;41.15;99761.38;5055291;28;20029;-57
2022/05/23 11:51:32;;;;;;;19.83;11.70;;;;;;;26.69;40.86;99756.16;5054895;28;20040;-57
2022/05/23 11:54:08;;;;;;;19.75;12.50;;;;;;;26.71;41.05;99750.84;5055299;28;20476;-57
2022/05/23 11:56:44;;;;;;;19.30;12.93;;;;;;;26.61;40.55;99755.53;5053771;28;20053;-57
2022/05/23 11:59:29;;;;;;;18.73;11.23;;;;;;;26.72;41.38;99750.41;5055028;28;20021;-57
2022/05/23 12:02:21;;;;;;;18.95;11.60;;;;;;;26.79;41.67;99749.47;5054839;28;20044;-57
2022/05/23 12:04:50;;;;;;;19.80;11.43;;;;;;;26.73;39.98;99734.19;5049031;28;20476;-57
2022/05/23 12:07:31;;;;;;;19.00;10.77;;;;;;;26.73;40.48;99739.88;5055063;28;20044;-56
2022/05/23 12:10:15;;;;;;;18.73;11.48;;;;;;;26.52;39.57;99733.50;5054668;28;20028;-57
2022/05/23 12:12:47;;;;;;;19.20;11.30;;;;;;;26.42;40.21;99728.91;5055171;28;20041;-56
2022/05/23 12:15:44;;;;;;;18.30;11.32;;;;;;;26.29;40.79;99723.91;5054712;28;20024;-56
2022/05/23 12:18:12;;;;;;;17.58;11.15;;;;;;;26.13;40.39;99726.75;5054590;28;20029;-56
2022/05/23 12:20:45;;;;;;;19.58;11.60;;;;;;;26.01;41.71;99726.16;5055313;28;20025;-56
2022/05/23 12:23:15;;;;;;;19.45;11.23;;;;;;;25.90;41.63;99734.09;5054686;28;20029;-56
2022/05/23 12:25:41;;;;;;;20.55;11.57;;;;;;;25.83;41.95;99731.44;5054540;28;20048;-57